createdAt,value
2022-10-23T00:01:00.392Z,11.21
2022-10-23T00:03:27.433Z,11.19
2022-10-23T00:05:53.960Z,11.15
2022-10-23T00:08:20.530Z,11.14
2022-10-23T00:10:47.148Z,11.11
2022-10-23T00:13:13.781Z,11.10
2022-10-23T00:15:40.395Z,11.09
2022-10-23T00:18:06.944Z,11.08
2022-10-23T00:20:33.625Z,11.05
2022-10-23T00:23:00.210Z,11.03
2022-10-23T00:25:26.789Z,10.98
2022-10-23T00:27:53.447Z,10.99
2022-10-23T00:30:20.226Z,10.96
2022-10-23T00:32:46.779Z,10.94
2022-10-23T00:35:14.385Z,10.92
2022-10-23T00:37:41.215Z,10.90
2022-10-23T00:40:08.924Z,10.84
2022-10-23T00:42:35.532Z,10.83
2022-10-23T00:45:10.262Z,10.82
2022-10-23T00:47:36.876Z,10.79
2022-10-23T00:50:04.876Z,10.76
2022-10-23T00:52:32.522Z,10.75
2022-10-23T00:54:59.209Z,10.71
2022-10-23T00:57:25.808Z,10.71
2022-10-23T00:59:52.462Z,10.70
2022-10-23T01:02:19.180Z,10.67
2022-10-23T01:04:46.075Z,10.65
2022-10-23T01:07:24.048Z,10.64
2022-10-23T01:10:03.349Z,10.63
2022-10-23T01:12:50.525Z,10.58
2022-10-23T01:15:22.828Z,10.56
2022-10-23T01:17:56.680Z,10.54
2022-10-23T01:20:36.596Z,10.50
2022-10-23T01:23:06.350Z,10.47
2022-10-23T01:26:04.650Z,10.45
2022-10-23T01:28:36.304Z,10.42
2022-10-23T01:31:08.893Z,10.42
2022-10-23T01:33:45.027Z,10.39
2022-10-23T01:36:14.916Z,10.36
2022-10-23T01:38:48.559Z,10.34
2022-10-23T01:41:23.875Z,10.35
2022-10-23T01:44:18.817Z,10.33
2022-10-23T01:46:48.419Z,10.33
2022-10-23T01:49:15.234Z,10.30
2022-10-23T01:51:46.693Z,10.29
2022-10-23T01:54:15.568Z,10.27
2022-10-23T01:56:48.973Z,10.27
2022-10-23T01:59:24.216Z,10.25
2022-10-23T02:01:54.173Z,10.22
2022-10-23T02:04:31.335Z,10.22
2022-10-23T02:06:58.101Z,10.19
2022-10-23T02:09:24.972Z,10.17
2022-10-23T02:12:18.285Z,10.18
2022-10-23T02:15:17.127Z,10.15
2022-10-23T02:18:07.873Z,10.13
2022-10-23T02:20:42.111Z,10.12
2022-10-23T02:23:31.373Z,10.08
2022-10-23T02:26:12.224Z,10.08
2022-10-23T02:28:52.383Z,10.06
2022-10-23T02:31:22.443Z,10.02
2022-10-23T02:33:50.184Z,10.01
2022-10-23T02:36:19.373Z,9.99
2022-10-23T02:38:46.379Z,9.98
2022-10-23T02:41:53.675Z,9.98
2022-10-23T02:44:30.797Z,9.94
2022-10-23T02:47:09.370Z,9.92
2022-10-23T02:49:51.862Z,9.89
2022-10-23T02:52:25.616Z,9.87
2022-10-23T02:54:58.451Z,9.83
2022-10-23T02:57:35.749Z,9.80
2022-10-23T03:00:08.622Z,9.79
2022-10-23T03:02:45.776Z,9.79
2022-10-23T03:05:16.986Z,9.77
2022-10-23T03:07:44.155Z,9.76
2022-10-23T03:10:11.423Z,9.74
2022-10-23T03:12:38.450Z,9.73
2022-10-23T03:15:06.795Z,9.73
2022-10-23T03:17:34.152Z,9.72
2022-10-23T03:20:00.845Z,9.72
2022-10-23T03:22:27.526Z,9.72
2022-10-23T03:24:54.290Z,9.71
2022-10-23T03:27:20.969Z,9.70
2022-10-23T03:29:47.666Z,9.68
2022-10-23T03:32:14.504Z,9.68
2022-10-23T03:34:41.191Z,9.67
2022-10-23T03:37:08.088Z,9.66
2022-10-23T03:39:34.936Z,9.63
2022-10-23T03:42:01.584Z,9.63
2022-10-23T03:44:28.312Z,9.63
2022-10-23T03:46:56.346Z,9.62
2022-10-23T03:49:23.080Z,9.60
2022-10-23T03:51:53.062Z,9.60
2022-10-23T03:54:25.230Z,9.60
2022-10-23T03:56:56.510Z,9.55
2022-10-23T03:59:24.287Z,9.56
2022-10-23T04:01:51.331Z,9.54
2022-10-23T04:04:18.119Z,9.55
2022-10-23T04:06:44.855Z,9.52
2022-10-23T04:11:39.374Z,9.48
2022-10-23T04:14:06.130Z,9.49
2022-10-23T04:16:32.921Z,9.47
2022-10-23T04:18:59.582Z,9.49
2022-10-23T04:21:26.348Z,9.48
2022-10-23T04:23:53.230Z,9.46
2022-10-23T04:26:19.932Z,9.46
2022-10-23T04:28:46.643Z,9.45
2022-10-23T04:31:13.375Z,9.45
2022-10-23T04:33:40.076Z,9.46
2022-10-23T04:36:07.127Z,9.45
2022-10-23T04:38:33.948Z,9.45
2022-10-23T04:41:00.575Z,9.42
2022-10-23T04:43:27.203Z,9.43
2022-10-23T04:45:54.523Z,9.42
2022-10-23T04:48:24.345Z,9.43
2022-10-23T04:50:58.935Z,9.40
2022-10-23T04:53:26.425Z,9.40
2022-10-23T04:55:54.926Z,9.38
2022-10-23T04:58:22.860Z,9.38
2022-10-23T05:00:50.373Z,9.37
2022-10-23T05:03:18.105Z,9.37
2022-10-23T05:05:45.863Z,9.35
2022-10-23T05:08:15.688Z,9.34
2022-10-23T05:10:44.872Z,9.32
2022-10-23T05:13:11.674Z,9.33
2022-10-23T05:15:38.417Z,9.29
2022-10-23T05:18:14.335Z,9.27
2022-10-23T05:20:41.632Z,9.27
2022-10-23T05:23:11.045Z,9.26
2022-10-23T05:25:37.804Z,9.26
2022-10-23T05:28:04.526Z,9.23
2022-10-23T05:30:33.154Z,9.22
2022-10-23T05:33:02.252Z,9.21
2022-10-23T05:35:29.877Z,9.18
2022-10-23T05:37:59.088Z,9.16
2022-10-23T05:40:26.479Z,9.15
2022-10-23T05:42:53.292Z,9.14
2022-10-23T05:45:20.390Z,9.13
2022-10-23T05:47:47.863Z,9.11
2022-10-23T05:50:14.576Z,9.11
2022-10-23T05:52:41.502Z,9.08
2022-10-23T05:55:08.970Z,9.06
2022-10-23T05:57:37.680Z,9.04
2022-10-23T06:00:05.427Z,9.03
2022-10-23T06:02:33.397Z,9.03
2022-10-23T06:05:00.032Z,8.98
2022-10-23T06:07:30.100Z,8.98
2022-10-23T06:09:59.238Z,8.93
2022-10-23T06:12:25.915Z,8.94
2022-10-23T06:14:52.637Z,8.92
2022-10-23T06:17:19.338Z,8.90
2022-10-23T06:19:46.399Z,8.90
2022-10-23T06:22:13.530Z,8.92
2022-10-23T06:24:40.430Z,8.90
2022-10-23T06:27:07.123Z,8.88
2022-10-23T06:29:33.840Z,8.88
2022-10-23T06:32:00.755Z,8.88
2022-10-23T06:34:27.382Z,8.87
2022-10-23T06:36:54.007Z,8.87
2022-10-23T06:39:22.238Z,8.91
2022-10-23T06:41:48.946Z,8.90
2022-10-23T06:44:16.087Z,8.90
2022-10-23T06:46:47.095Z,8.91
2022-10-23T06:49:15.403Z,8.90
2022-10-23T06:51:42.746Z,8.89
2022-10-23T06:54:11.418Z,8.93
2022-10-23T06:56:38.501Z,8.93
2022-10-23T06:59:07.779Z,8.95
2022-10-23T07:01:35.439Z,8.95
2022-10-23T07:04:02.364Z,8.96
2022-10-23T07:06:29.147Z,8.98
2022-10-23T07:08:55.770Z,8.98
2022-10-23T07:11:25.838Z,9.00
2022-10-23T07:13:53.980Z,9.02
2022-10-23T07:16:22.923Z,9.03
2022-10-23T07:18:58.957Z,9.04
2022-10-23T07:21:26.683Z,9.07
2022-10-23T07:23:53.351Z,9.07
2022-10-23T07:26:20.580Z,9.09
2022-10-23T07:28:48.660Z,9.13
2022-10-23T07:31:15.477Z,9.15
2022-10-23T07:33:42.164Z,9.19
2022-10-23T07:36:10.359Z,9.22
2022-10-23T07:38:37.312Z,9.25
2022-10-23T07:41:06.834Z,9.28
2022-10-23T07:43:35.676Z,9.33
2022-10-23T07:46:02.519Z,9.38
2022-10-23T07:48:29.783Z,9.40
2022-10-23T07:51:08.651Z,9.45
2022-10-23T07:53:35.926Z,9.49
2022-10-23T07:56:10.268Z,9.52
2022-10-23T07:58:36.901Z,9.56
2022-10-23T08:01:04.607Z,9.60
2022-10-23T08:03:34.666Z,9.63
2022-10-23T08:06:01.381Z,9.68
2022-10-23T08:08:28.093Z,9.71
2022-10-23T08:10:56.592Z,9.75
2022-10-23T08:13:23.883Z,9.79
2022-10-23T08:15:52.020Z,9.83
2022-10-23T08:18:19.229Z,9.89
2022-10-23T08:20:48.073Z,9.94
2022-10-23T08:23:18.623Z,9.99
2022-10-23T08:25:46.194Z,10.03
2022-10-23T08:28:12.958Z,10.08
2022-10-23T08:30:39.668Z,10.13
2022-10-23T08:33:07.222Z,10.18
2022-10-23T08:35:38.387Z,10.23
2022-10-23T08:38:05.595Z,10.27
2022-10-23T08:40:32.732Z,10.33
2022-10-23T08:43:06.815Z,10.39
2022-10-23T08:45:40.520Z,10.43
2022-10-23T08:48:18.010Z,10.49
2022-10-23T08:50:50.724Z,10.55
2022-10-23T08:53:29.485Z,10.60
2022-10-23T08:56:03.469Z,10.65
2022-10-23T08:58:46.682Z,10.68
2022-10-23T09:01:26.812Z,10.74
2022-10-23T09:03:53.607Z,10.79
2022-10-23T09:06:32.065Z,10.85
2022-10-23T09:09:38.414Z,10.94
2022-10-23T09:12:13.321Z,11.00
2022-10-23T09:14:52.116Z,11.07
2022-10-23T09:17:27.591Z,11.18
2022-10-23T09:20:20.642Z,11.27
2022-10-23T09:22:49.978Z,11.33
2022-10-23T09:25:23.461Z,11.42
2022-10-23T09:27:56.135Z,11.55
2022-10-23T09:30:38.692Z,11.69
2022-10-23T09:33:25.620Z,11.75
2022-10-23T09:35:59.697Z,11.87
2022-10-23T09:38:33.901Z,12.00
2022-10-23T09:41:18.140Z,12.11
2022-10-23T09:43:44.992Z,12.27
2022-10-23T09:46:12.160Z,12.31
2022-10-23T09:48:42.474Z,12.28
2022-10-23T09:51:18.639Z,12.47
2022-10-23T09:53:50.352Z,12.61
2022-10-23T09:56:41.825Z,12.70
2022-10-23T09:59:11.679Z,12.69
2022-10-23T10:01:55.382Z,12.80
2022-10-23T10:04:41.877Z,12.89
2022-10-23T10:07:21.159Z,12.95
2022-10-23T10:09:48.904Z,13.13
2022-10-23T10:12:37.785Z,13.21
2022-10-23T10:15:26.799Z,13.38
2022-10-23T10:18:17.642Z,13.44
2022-10-23T10:20:50.159Z,13.41
2022-10-23T10:23:35.296Z,13.73
2022-10-23T10:26:33.425Z,13.87
2022-10-23T10:29:15.430Z,13.83
2022-10-23T10:32:12.934Z,13.97
2022-10-23T10:35:07.137Z,14.00
2022-10-23T10:37:36.675Z,14.14
2022-10-23T10:40:13.553Z,14.25
2022-10-23T10:43:11.182Z,14.25
2022-10-23T10:46:10.194Z,14.39
2022-10-23T10:48:49.895Z,14.51
2022-10-23T10:51:24.384Z,14.61
2022-10-23T10:53:51.027Z,14.67
2022-10-23T10:56:22.016Z,14.83
2022-10-23T10:58:57.956Z,14.88
2022-10-23T11:01:42.889Z,15.10
2022-10-23T11:04:28.643Z,15.14
2022-10-23T11:06:59.700Z,15.13
2022-10-23T11:09:30.768Z,15.24
2022-10-23T11:11:57.476Z,15.39
2022-10-23T11:14:26.632Z,15.57
2022-10-23T11:17:12.127Z,15.67
2022-10-23T11:19:47.198Z,15.59
2022-10-23T11:22:28.203Z,15.67
2022-10-23T11:25:03.516Z,15.74
2022-10-23T11:27:42.127Z,15.84
2022-10-23T11:30:41.456Z,15.82
2022-10-23T11:33:51.769Z,16.01
2022-10-23T11:36:45.040Z,16.22
2022-10-23T11:39:22.189Z,16.41
2022-10-23T11:42:00.858Z,16.38
2022-10-23T11:44:48.487Z,16.41
2022-10-23T11:47:38.942Z,16.34
2022-10-23T11:50:09.615Z,16.39
2022-10-23T11:52:50.443Z,16.59
2022-10-23T11:55:19.745Z,16.63
2022-10-23T11:58:04.748Z,16.74
2022-10-23T12:00:34.411Z,16.77
2022-10-23T12:03:02.171Z,16.84
2022-10-23T12:05:37.722Z,16.88
2022-10-23T12:08:07.783Z,17.00
2022-10-23T12:10:43.999Z,17.09
2022-10-23T12:13:55.400Z,17.08
2022-10-23T12:16:22.058Z,17.06
2022-10-23T12:18:54.142Z,17.08
2022-10-23T12:21:28.144Z,17.21
2022-10-23T12:24:17.555Z,17.25
2022-10-23T12:27:12.512Z,17.30
2022-10-23T12:29:57.145Z,17.33
2022-10-23T12:33:07.279Z,17.39
2022-10-23T12:36:06.492Z,17.53
2022-10-23T12:38:36.305Z,17.53
2022-10-23T12:41:16.357Z,17.63
2022-10-23T12:43:45.635Z,17.71
2022-10-23T12:46:26.502Z,17.70
2022-10-23T12:48:54.851Z,17.82
2022-10-23T12:51:25.138Z,17.91
2022-10-23T12:53:52.119Z,18.02
2022-10-23T12:56:19.228Z,18.04
2022-10-23T12:59:02.484Z,18.12
2022-10-23T13:01:34.455Z,18.10
2022-10-23T13:04:22.424Z,18.11
2022-10-23T13:06:50.231Z,18.11
2022-10-23T13:09:40.317Z,18.16
2022-10-23T13:12:08.779Z,18.24
2022-10-23T13:14:57.531Z,18.26
2022-10-23T13:17:44.520Z,18.34
2022-10-23T13:20:21.358Z,18.38
2022-10-23T13:23:09.797Z,18.40
2022-10-23T13:25:38.409Z,18.38
2022-10-23T13:28:07.863Z,18.43
2022-10-23T13:30:40.529Z,18.37
2022-10-23T13:33:22.684Z,18.51
2022-10-23T13:36:14.250Z,18.54
2022-10-23T13:38:46.561Z,18.53
2022-10-23T13:41:19.006Z,18.53
2022-10-23T13:43:48.646Z,18.49
2022-10-23T13:46:20.690Z,18.56
2022-10-23T13:48:48.054Z,18.65
2022-10-23T13:51:28.083Z,18.66
2022-10-23T13:53:56.056Z,18.68
2022-10-23T13:56:27.600Z,18.71
2022-10-23T13:58:54.683Z,18.70
2022-10-23T14:01:30.155Z,18.72
2022-10-23T14:03:58.257Z,18.75
2022-10-23T14:06:25.683Z,18.71
2022-10-23T14:08:52.655Z,18.75
2022-10-23T14:11:20.490Z,18.76
2022-10-23T14:13:48.216Z,18.77
2022-10-23T14:16:17.104Z,18.76
2022-10-23T14:18:43.942Z,18.78
2022-10-23T14:21:13.067Z,18.77
2022-10-23T14:23:40.124Z,18.77
2022-10-23T14:26:14.134Z,18.78
2022-10-23T14:28:41.346Z,18.76
2022-10-23T14:31:13.499Z,18.77
2022-10-23T14:33:41.022Z,18.75
2022-10-23T14:36:08.660Z,18.75
2022-10-23T14:38:35.642Z,18.74
2022-10-23T14:41:03.002Z,18.74
2022-10-23T14:43:29.673Z,18.74
2022-10-23T14:45:56.335Z,18.75
2022-10-23T14:48:23.009Z,18.74
2022-10-23T14:50:49.962Z,18.74
2022-10-23T14:53:17.114Z,18.72
2022-10-23T14:55:43.795Z,18.72
2022-10-23T14:58:10.490Z,18.73
2022-10-23T15:00:37.233Z,18.72
2022-10-23T15:03:03.964Z,18.72
2022-10-23T15:05:30.733Z,18.72
2022-10-23T15:07:59.067Z,18.71
2022-10-23T15:10:25.748Z,18.71
2022-10-23T15:12:55.603Z,18.71
2022-10-23T15:15:22.805Z,18.68
2022-10-23T15:17:49.484Z,18.69
2022-10-23T15:20:16.315Z,18.68
2022-10-23T15:22:43.328Z,18.68
2022-10-23T15:25:13.141Z,18.64
2022-10-23T15:27:42.657Z,18.66
2022-10-23T15:30:11.178Z,18.64
2022-10-23T15:32:37.861Z,18.63
2022-10-23T15:35:04.784Z,18.61
2022-10-23T15:37:31.697Z,18.61
2022-10-23T15:40:01.330Z,18.59
2022-10-23T15:42:29.252Z,18.56
2022-10-23T15:44:56.021Z,18.56
2022-10-23T15:47:22.722Z,18.54
2022-10-23T15:49:49.362Z,18.52
2022-10-23T15:52:16.049Z,18.49
2022-10-23T15:54:42.799Z,18.48
2022-10-23T15:57:10.432Z,18.44
2022-10-23T15:59:37.079Z,18.41
2022-10-23T16:02:04.160Z,18.40
2022-10-23T16:04:30.981Z,18.38
2022-10-23T16:06:57.599Z,18.36
2022-10-23T16:09:24.276Z,18.32
2022-10-23T16:11:50.950Z,18.31
2022-10-23T16:14:17.996Z,18.28
2022-10-23T16:16:44.932Z,18.26
2022-10-23T16:19:12.337Z,18.23
2022-10-23T16:21:39.470Z,18.21
2022-10-23T16:24:08.224Z,18.17
2022-10-23T16:30:24.315Z,18.07
2022-10-23T16:32:50.945Z,18.04
2022-10-23T16:35:17.667Z,18.01
2022-10-23T16:37:44.726Z,17.99
2022-10-23T16:40:11.767Z,17.96
2022-10-23T16:42:40.426Z,17.94
2022-10-23T16:45:08.447Z,17.90
2022-10-23T16:47:35.215Z,17.87
2022-10-23T16:50:01.942Z,17.84
2022-10-23T16:52:28.930Z,17.82
2022-10-23T16:54:55.691Z,17.77
2022-10-23T16:57:22.626Z,17.74
2022-10-23T16:59:49.384Z,17.71
2022-10-23T17:02:16.247Z,17.66
2022-10-23T17:04:43.033Z,17.64
2022-10-23T17:07:10.314Z,17.61
2022-10-23T17:09:38.488Z,17.58
2022-10-23T17:12:05.708Z,17.56
2022-10-23T17:14:32.608Z,17.53
2022-10-23T17:17:02.291Z,17.51
2022-10-23T17:19:47.044Z,17.47
2022-10-23T17:22:14.867Z,17.42
2022-10-23T17:24:42.508Z,17.40
2022-10-23T17:27:09.458Z,17.36
2022-10-23T17:29:36.239Z,17.33
2022-10-23T17:32:03.183Z,17.32
2022-10-23T17:34:30.014Z,17.29
2022-10-23T17:36:56.724Z,17.25
2022-10-23T17:39:26.395Z,17.16
2022-10-23T17:41:54.166Z,17.17
2022-10-23T17:44:21.133Z,17.15
2022-10-23T17:46:54.216Z,17.14
2022-10-23T17:49:21.979Z,17.10
2022-10-23T17:51:54.870Z,17.09
2022-10-23T17:54:22.336Z,17.06
2022-10-23T17:56:49.046Z,17.04
2022-10-23T17:59:19.420Z,17.03
2022-10-23T18:01:48.119Z,17.01
2022-10-23T18:04:17.034Z,17.00
2022-10-23T18:06:53.262Z,16.97
2022-10-23T18:09:21.476Z,16.94
2022-10-23T18:11:48.819Z,16.91
2022-10-23T18:14:20.848Z,16.88
2022-10-23T18:16:48.145Z,16.86
2022-10-23T18:19:18.169Z,16.85
2022-10-23T18:21:45.748Z,16.81
2022-10-23T18:24:12.496Z,16.78
2022-10-23T18:26:41.439Z,16.76
2022-10-23T18:29:08.946Z,16.73
2022-10-23T18:31:37.393Z,16.71
2022-10-23T18:34:15.761Z,16.68
2022-10-23T18:36:42.455Z,16.66
2022-10-23T18:39:13.228Z,16.63
2022-10-23T18:41:42.029Z,16.61
2022-10-23T18:44:10.115Z,16.59
2022-10-23T18:46:37.430Z,16.56
2022-10-23T18:49:04.359Z,16.53
2022-10-23T18:51:33.666Z,16.51
2022-10-23T18:54:03.423Z,16.49
2022-10-23T18:56:30.137Z,16.46
2022-10-23T18:58:59.068Z,16.46
2022-10-23T19:01:27.287Z,16.43
2022-10-23T19:03:58.808Z,16.41
2022-10-23T19:06:26.053Z,16.40
2022-10-23T19:08:52.819Z,16.38
2022-10-23T19:11:21.935Z,16.36
2022-10-23T19:13:48.766Z,16.34
2022-10-23T19:16:25.995Z,16.33
2022-10-23T19:18:58.131Z,16.30
2022-10-23T19:21:31.346Z,16.26
2022-10-23T19:24:02.082Z,16.27
2022-10-23T19:26:30.679Z,16.25
2022-10-23T19:28:58.912Z,16.23
2022-10-23T19:31:26.550Z,16.22
2022-10-23T19:33:53.851Z,16.20
2022-10-23T19:36:23.478Z,16.20
2022-10-23T19:38:50.463Z,16.17
2022-10-23T19:41:18.387Z,16.12
2022-10-23T19:43:45.306Z,16.11
2022-10-23T19:46:12.483Z,16.10
2022-10-23T19:48:44.675Z,16.10
2022-10-23T19:51:13.025Z,16.10
2022-10-23T19:53:40.958Z,16.06
2022-10-23T19:56:09.324Z,16.06
2022-10-23T19:58:36.056Z,16.06
2022-10-23T20:01:14.992Z,16.05
2022-10-23T20:03:45.428Z,16.03
2022-10-23T20:06:14.289Z,16.01
2022-10-23T20:08:41.246Z,16.00
2022-10-23T20:11:08.817Z,15.99
2022-10-23T20:13:36.049Z,15.99
2022-10-23T20:16:02.700Z,15.99
2022-10-23T20:18:29.466Z,15.98
2022-10-23T20:20:56.110Z,15.97
2022-10-23T20:23:22.896Z,15.97
2022-10-23T20:25:49.655Z,15.94
2022-10-23T20:28:16.781Z,15.94
2022-10-23T20:30:45.562Z,15.94
2022-10-23T20:33:12.315Z,15.91
2022-10-23T20:35:43.000Z,15.91
2022-10-23T20:38:09.878Z,15.90
2022-10-23T20:40:36.602Z,15.85
2022-10-23T20:43:03.436Z,15.88
2022-10-23T20:45:30.171Z,15.87
2022-10-23T20:47:57.122Z,15.85
2022-10-23T20:50:24.252Z,15.84
2022-10-23T20:52:51.546Z,15.77
2022-10-23T20:55:19.252Z,15.79
2022-10-23T20:57:46.410Z,15.80
2022-10-23T21:00:14.019Z,15.73
2022-10-23T21:02:40.782Z,15.75
2022-10-23T21:05:08.050Z,15.64
2022-10-23T21:07:34.730Z,15.70
2022-10-23T21:10:04.619Z,15.73
2022-10-23T21:12:31.291Z,15.76
2022-10-23T21:14:58.259Z,15.79
2022-10-23T21:17:24.932Z,15.79
2022-10-23T21:19:51.605Z,15.76
2022-10-23T21:22:18.307Z,15.78
2022-10-23T21:24:44.997Z,15.76
2022-10-23T21:27:11.814Z,15.70
2022-10-23T21:29:38.544Z,15.75
2022-10-23T21:32:05.286Z,15.76
2022-10-23T21:34:32.017Z,15.77
2022-10-23T21:37:14.884Z,15.76
2022-10-23T21:39:46.118Z,15.73
2022-10-23T21:42:16.045Z,15.75
2022-10-23T21:44:43.431Z,15.67
2022-10-23T21:47:10.204Z,15.66
2022-10-23T21:49:37.068Z,15.69
2022-10-23T21:52:04.908Z,15.72
2022-10-23T21:54:31.678Z,15.73
2022-10-23T21:56:58.467Z,15.64
2022-10-23T21:59:29.117Z,15.72
2022-10-23T22:01:58.754Z,15.72
2022-10-23T22:04:25.540Z,15.66
2022-10-23T22:06:53.207Z,15.60
2022-10-23T22:09:21.866Z,15.55
2022-10-23T22:11:53.297Z,15.55
2022-10-23T22:14:20.716Z,15.59
2022-10-23T22:16:47.951Z,15.54
2022-10-23T22:19:17.007Z,15.57
2022-10-23T22:21:43.754Z,15.56
2022-10-23T22:24:11.251Z,15.58
2022-10-23T22:26:43.657Z,15.62
2022-10-23T22:29:14.334Z,15.64
2022-10-23T22:31:44.217Z,15.57
2022-10-23T22:34:26.841Z,15.62
2022-10-23T22:37:05.284Z,15.59
2022-10-23T22:39:31.900Z,15.53
2022-10-23T22:41:58.599Z,15.55
2022-10-23T22:44:25.340Z,15.48
2022-10-23T22:46:52.027Z,15.44
2022-10-23T22:49:18.694Z,15.47
2022-10-23T22:51:45.379Z,15.42
2022-10-23T22:54:12.049Z,15.41
2022-10-23T22:56:42.641Z,15.42
2022-10-23T22:59:09.391Z,15.41
2022-10-23T23:01:42.887Z,15.50
2022-10-23T23:04:32.953Z,15.55
2022-10-23T23:06:58.248Z,15.40
2022-10-23T23:09:24.981Z,15.44
2022-10-23T23:11:52.573Z,15.47
2022-10-23T23:14:23.629Z,15.42
2022-10-23T23:16:52.851Z,15.34
2022-10-23T23:19:19.905Z,15.45
2022-10-23T23:21:46.753Z,15.48
2022-10-23T23:24:13.535Z,15.46
2022-10-23T23:26:40.389Z,15.47
2022-10-23T23:29:07.193Z,15.55
2022-10-23T23:31:33.836Z,15.48
2022-10-23T23:34:01.045Z,15.29
2022-10-23T23:36:28.397Z,15.47
2022-10-23T23:38:57.023Z,15.54
2022-10-23T23:41:25.288Z,15.60
2022-10-23T23:43:54.148Z,15.55
2022-10-23T23:46:20.789Z,15.52
2022-10-23T23:48:49.407Z,15.47
2022-10-23T23:51:17.732Z,15.49
2022-10-23T23:53:44.420Z,15.33
2022-10-23T23:56:11.141Z,15.24
2022-10-23T23:58:37.890Z,15.24
